Time;durP1;ratioP1;P1;durP2;ratioP2;P2;SDS_P1;SDS_P2;PMS_P1;PMS_P2;Temp;Humidity;BMP_temperature;BMP_pressure;BME280_temperature;BME280_humidity;BME280_pressure;Samples;Min_cycle;Max_cycle;Signal;HPM_P1;HPM_P2
2023/04/10 00:01:49;;;;;;;22.90;19.00;;;;;;;12.09;79.30;99843.52;107270;1257;60412;-37
2023/04/10 00:04:20;;;;;;;31.10;18.60;;;;;;;12.00;79.41;99845.37;107251;1257;73910;-37
2023/04/10 00:06:51;;;;;;;19.60;15.80;;;;;;;11.90;79.70;99842.36;107269;1257;69172;-37
2023/04/10 00:09:20;;;;;;;18.60;16.00;;;;;;;11.86;79.82;99840.41;107150;1256;73966;-37
2023/04/10 00:11:48;;;;;;;18.60;16.70;;;;;;;11.86;79.96;99839.07;107237;1257;61534;-36
2023/04/10 00:14:21;;;;;;;21.10;18.70;;;;;;;11.82;80.25;99838.61;107249;1257;61519;-37
2023/04/10 00:16:52;;;;;;;22.90;17.60;;;;;;;11.82;80.46;99838.21;107231;1257;72943;-37
2023/04/10 00:19:21;;;;;;;17.40;15.40;;;;;;;11.78;80.56;99841.16;107226;1257;68277;-37
2023/04/10 00:21:50;;;;;;;19.20;16.90;;;;;;;11.81;80.57;99839.21;107193;1257;73943;-37
2023/04/10 00:24:20;;;;;;;21.70;17.80;;;;;;;11.80;80.64;99843.45;107258;1260;61039;-37
2023/04/10 00:26:49;;;;;;;20.00;17.70;;;;;;;11.74;80.93;99837.45;107222;1257;61631;-37
2023/04/10 00:29:17;;;;;;;20.60;18.40;;;;;;;11.70;81.24;99839.58;107091;1257;73573;-37
2023/04/10 00:31:50;;;;;;;25.70;16.70;;;;;;;11.73;81.18;99844.15;107071;1256;69574;-37
2023/04/10 00:34:19;;;;;;;20.60;17.40;;;;;;;11.74;81.09;99840.52;107167;1256;72636;-37
2023/04/10 00:36:49;;;;;;;18.50;15.90;;;;;;;11.69;81.00;99842.58;107135;1257;60355;-37
2023/04/10 00:39:18;;;;;;;16.00;14.30;;;;;;;11.60;80.77;99840.28;107217;1256;61593;-37
2023/04/10 00:41:49;;;;;;;16.90;14.20;;;;;;;11.52;80.66;99842.04;107217;1257;75055;-37
2023/04/10 00:44:18;;;;;;;17.50;14.80;;;;;;;11.45;80.71;99840.33;107239;1257;68896;-37
2023/04/10 00:46:47;;;;;;;17.20;15.00;;;;;;;11.36;80.95;99839.09;107241;1256;73864;-37
2023/04/10 00:49:17;;;;;;;14.60;12.90;;;;;;;11.26;81.48;99840.97;107253;1260;63179;-38
2023/04/10 00:51:46;;;;;;;17.80;14.60;;;;;;;11.25;81.61;99838.85;107312;1259;60220;-38
2023/04/10 00:54:18;;;;;;;16.90;14.00;;;;;;;11.22;81.77;99836.76;107245;1256;73759;-38
2023/04/10 00:56:47;;;;;;;18.20;14.10;;;;;;;11.14;81.84;99840.74;107239;1257;68302;-38
2023/04/10 00:59:16;;;;;;;15.20;13.30;;;;;;;11.07;82.00;99848.20;107119;1257;73884;-38
2023/04/10 01:04:45;;;;;;;17.30;15.40;;;;;;;11.03;82.40;99840.23;104267;1290;601144;-37
2023/04/10 01:07:26;;;;;;;18.00;14.60;;;;;;;10.95;82.74;99840.29;106756;1266;63177;-37
2023/04/10 01:10:00;;;;;;;18.70;15.50;;;;;;;10.96;82.87;99841.25;106658;1266;61564;-38
2023/04/10 01:12:53;;;;;;;21.30;17.60;;;;;;;10.92;83.21;99840.81;106651;1267;73470;-38
2023/04/10 01:15:24;;;;;;;19.40;16.40;;;;;;;10.86;83.40;99842.32;106609;1267;69272;-37
2023/04/10 01:17:53;;;;;;;18.00;15.70;;;;;;;10.88;83.41;99844.55;106565;1263;174082;-38
2023/04/10 01:20:24;;;;;;;24.60;18.30;;;;;;;10.89;83.33;99841.39;106832;1264;59565;-37
2023/04/10 01:23:11;;;;;;;22.60;17.60;;;;;;;10.88;83.32;99843.23;106808;1263;60027;-38
2023/04/10 01:25:43;;;;;;;21.80;16.30;;;;;;;10.84;83.30;99841.17;107004;1259;73429;-37
2023/04/10 01:28:18;;;;;;;19.00;17.00;;;;;;;10.81;83.35;99842.27;107043;1260;68752;-37
2023/04/10 01:30:47;;;;;;;20.10;17.50;;;;;;;10.80;83.65;99842.16;106901;1260;73639;-37
2023/04/10 01:33:18;;;;;;;18.20;16.10;;;;;;;10.78;83.61;99838.55;107034;1260;63256;-37
2023/04/10 01:35:51;;;;;;;20.30;17.30;;;;;;;10.83;83.55;99835.73;107003;1265;61555;-37
2023/04/10 01:38:20;;;;;;;21.00;17.40;;;;;;;10.85;83.32;99836.55;107045;1260;72993;-37
2023/04/10 01:40:51;;;;;;;19.20;17.00;;;;;;;10.81;83.37;99837.47;107046;1260;69188;-38
2023/04/10 01:43:30;;;;;;;21.40;18.10;;;;;;;10.80;83.45;99839.15;107009;1260;73572;-37
2023/04/10 01:45:58;;;;;;;27.70;19.90;;;;;;;10.79;83.55;99839.20;107074;1260;61566;-38
2023/04/10 01:48:27;;;;;;;23.20;19.70;;;;;;;10.74;83.88;99840.45;107046;1260;61165;-37
2023/04/10 01:50:56;;;;;;;20.20;17.50;;;;;;;10.71;84.08;99841.92;107099;1260;74242;-37
2023/04/10 01:53:25;;;;;;;24.50;19.20;;;;;;;10.73;84.19;99840.73;107016;1260;69398;-37
2023/04/10 01:55:54;;;;;;;23.60;19.90;;;;;;;10.72;84.26;99842.25;106908;1260;73362;-37
2023/04/10 01:58:23;;;;;;;23.40;18.30;;;;;;;10.71;84.28;99837.89;106878;1260;62885;-37
2023/04/10 02:00:55;;;;;;;25.70;19.20;;;;;;;10.73;84.20;99837.02;106900;1260;61222;-37
2023/04/10 02:03:25;;;;;;;24.80;19.20;;;;;;;10.75;84.17;99842.19;106944;1260;74264;-37
2023/04/10 02:06:10;;;;;;;23.10;19.70;;;;;;;10.73;84.34;99842.99;107018;1261;67637;-37
2023/04/10 02:08:42;;;;;;;24.70;18.10;;;;;;;10.70;84.74;99846.00;106927;1260;73905;-36
2023/04/10 02:11:14;;;;;;;22.70;19.20;;;;;;;10.75;84.52;99848.77;107031;1261;61603;-38
2023/04/10 02:13:43;;;;;;;24.30;19.50;;;;;;;10.78;84.54;99847.94;107051;1259;60398;-38
2023/04/10 02:16:12;;;;;;;22.30;17.50;;;;;;;10.81;84.68;99845.36;106903;1260;74111;-38
2023/04/10 02:18:42;;;;;;;22.70;16.60;;;;;;;10.84;84.62;99844.05;106928;1260;67842;-38
2023/04/10 02:21:11;;;;;;;21.70;17.80;;;;;;;10.95;84.16;99844.08;106966;1265;73908;-38
2023/04/10 02:23:42;;;;;;;25.30;18.70;;;;;;;10.98;83.68;99843.85;107021;1260;61354;-38
2023/04/10 02:26:11;;;;;;;23.60;18.20;;;;;;;10.93;83.65;99842.80;106965;1260;61593;-38
2023/04/10 02:28:40;;;;;;;20.80;16.70;;;;;;;10.87;83.68;99841.27;107026;1260;74406;-38
2023/04/10 02:31:08;;;;;;;20.00;16.70;;;;;;;10.87;83.68;99843.42;107032;1260;69155;-38
2023/04/10 02:33:38;;;;;;;21.30;17.60;;;;;;;10.88;83.69;99841.66;107022;1260;73980;-38
2023/04/10 02:36:07;;;;;;;24.20;18.20;;;;;;;10.84;83.68;99844.66;107085;1264;61578;-38
2023/04/10 02:38:35;;;;;;;18.30;16.00;;;;;;;10.82;83.79;99841.83;107044;1260;59840;-38
2023/04/10 02:41:05;;;;;;;19.90;17.30;;;;;;;10.86;83.72;99841.09;107048;1260;73923;-38
2023/04/10 02:43:35;;;;;;;20.50;18.10;;;;;;;10.84;83.76;99845.98;107080;1260;69157;-38
2023/04/10 02:46:05;;;;;;;22.30;18.30;;;;;;;10.79;83.92;99846.03;106944;1260;73733;-38
2023/04/10 02:48:41;;;;;;;23.10;16.10;;;;;;;10.77;84.10;99844.25;106861;1260;63199;-38
2023/04/10 02:51:10;;;;;;;22.90;17.50;;;;;;;10.79;84.11;99848.04;106932;1260;61386;-38
2023/04/10 02:53:39;;;;;;;22.70;17.90;;;;;;;10.80;84.32;99847.67;106880;1260;73992;-38
2023/04/10 02:56:10;;;;;;;20.90;16.50;;;;;;;10.80;84.29;99850.14;106987;1260;68661;-38
2023/04/10 02:58:44;;;;;;;;;;;;;;;10.82;84.13;99850.83;106979;1260;74149;-38
2023/04/10 03:01:13;;;;;;;23.80;17.40;;;;;;;10.79;84.26;99849.81;107032;1260;59652;-38
2023/04/10 03:03:46;;;;;;;22.20;19.00;;;;;;;10.75;84.51;99853.04;106929;1260;61223;-38
2023/04/10 03:06:30;;;;;;;24.60;18.40;;;;;;;10.74;84.61;99853.23;107000;1260;72630;-38
2023/04/10 03:08:59;;;;;;;23.20;17.10;;;;;;;10.78;84.48;99856.23;107032;1261;68317;-38
2023/04/10 03:11:28;;;;;;;27.30;20.00;;;;;;;10.84;84.22;99851.23;107018;1260;72930;-38
2023/04/10 03:14:01;;;;;;;24.90;20.00;;;;;;;10.76;84.17;99848.10;107013;1260;61580;-38
2023/04/10 03:16:30;;;;;;;24.30;18.90;;;;;;;10.70;84.40;99854.31;107366;1256;61209;-38
2023/04/10 03:19:00;;;;;;;27.30;19.70;;;;;;;10.69;84.72;99855.61;107382;1255;73770;-38
2023/04/10 03:21:33;;;;;;;25.40;20.60;;;;;;;10.69;84.95;99857.05;107324;1257;69758;-38
2023/04/10 03:24:02;;;;;;;25.40;19.40;;;;;;;10.67;85.06;99858.63;107324;1257;73894;-38
2023/04/10 03:26:31;;;;;;;;;;;;;;;10.64;85.17;99858.10;107327;1257;63852;-38
2023/04/10 03:29:00;;;;;;;22.20;17.20;;;;;;;10.62;85.38;99856.41;107298;1256;60091;-37
2023/04/10 03:31:30;;;;;;;26.30;19.90;;;;;;;10.56;85.81;99856.56;107268;1257;73144;-37
2023/04/10 03:33:59;;;;;;;26.00;18.60;;;;;;;10.55;85.85;99857.77;107347;1257;67167;-36
2023/04/10 03:36:28;;;;;;;22.80;18.40;;;;;;;10.57;85.81;99856.95;107235;1257;73832;-37
2023/04/10 03:38:56;;;;;;;24.40;18.60;;;;;;;10.57;86.12;99859.08;107161;1257;61267;-37
2023/04/10 03:41:26;;;;;;;27.60;20.10;;;;;;;10.55;86.40;99855.30;107304;1258;61492;-37
2023/04/10 03:43:55;;;;;;;24.70;19.00;;;;;;;10.53;86.65;99859.48;107256;1257;74488;-37
2023/04/10 03:46:24;;;;;;;24.20;18.40;;;;;;;10.55;86.45;99862.89;107305;1256;68878;-37
2023/04/10 03:48:53;;;;;;;24.60;18.90;;;;;;;10.54;86.50;99862.17;107295;1256;72651;-36
2023/04/10 03:51:23;;;;;;;26.90;19.50;;;;;;;10.52;86.70;99864.75;107365;1257;61575;-36
2023/04/10 03:53:51;;;;;;;;;;;;;;;10.54;86.65;99868.59;107323;1257;61225;-36
2023/04/10 03:56:21;;;;;;;29.00;21.40;;;;;;;10.50;86.74;99863.45;107249;1257;74235;-37
2023/04/10 03:58:54;;;;;;;28.70;21.90;;;;;;;10.42;87.22;99861.36;107289;1257;69186;-36
2023/04/10 04:01:23;;;;;;;27.00;19.60;;;;;;;10.39;87.53;99859.76;107288;1257;73842;-37
2023/04/10 04:04:09;;;;;;;32.40;21.90;;;;;;;10.46;87.52;99865.45;107357;1257;60118;-36
2023/04/10 04:07:09;;;;;;;35.20;23.40;;;;;;;10.46;87.58;99866.98;107256;1257;61615;-36
2023/04/10 04:09:51;;;;;;;28.50;21.30;;;;;;;10.41;87.78;99869.01;107375;1256;73825;-36
2023/04/10 04:12:58;;;;;;;32.40;23.30;;;;;;;10.42;87.61;99864.56;107241;1257;69127;-37
2023/04/10 04:15:50;;;;;;;33.70;24.00;;;;;;;10.51;87.86;99872.76;107357;1257;73685;-37
2023/04/10 04:18:54;;;;;;;31.50;22.30;;;;;;;10.50;87.63;99871.65;106728;1268;63172;-37
2023/04/10 04:21:40;;;;;;;32.10;23.90;;;;;;;10.56;87.24;99871.42;107292;1260;61231;-37
2023/04/10 04:24:32;;;;;;;32.40;22.00;;;;;;;10.54;87.18;99876.64;107126;1257;74291;-38
2023/04/10 04:27:10;;;;;;;27.20;20.50;;;;;;;10.50;87.28;99878.23;107299;1257;68337;-38
2023/04/10 04:29:50;;;;;;;27.80;21.50;;;;;;;10.56;87.07;99874.23;107332;1257;71759;-37
2023/04/10 04:32:34;;;;;;;31.90;23.20;;;;;;;10.56;87.06;99877.63;107293;1260;61725;-36
2023/04/10 04:35:26;;;;;;;27.90;20.30;;;;;;;10.53;86.98;99882.10;107242;1257;61181;-37
2023/04/10 04:38:15;;;;;;;30.90;21.50;;;;;;;10.56;86.97;99884.45;107291;1257;74195;-37
2023/04/10 04:41:05;;;;;;;31.40;22.30;;;;;;;10.57;86.95;99885.02;107331;1257;69083;-37
2023/04/10 04:43:54;;;;;;;32.00;22.20;;;;;;;10.52;87.29;99879.52;107223;1257;75875;-37
2023/04/10 04:46:41;;;;;;;28.50;21.50;;;;;;;10.57;87.26;99881.92;107208;1257;61388;-37
2023/04/10 04:49:30;;;;;;;30.80;22.10;;;;;;;10.58;87.24;99884.17;107302;1256;61181;-37
2023/04/10 04:52:18;;;;;;;28.10;20.10;;;;;;;10.52;87.46;99887.05;107236;1260;74392;-37
2023/04/10 04:55:09;;;;;;;28.50;21.20;;;;;;;10.54;87.56;99883.14;107224;1261;68053;-37
2023/04/10 04:58:04;;;;;;;34.90;24.30;;;;;;;10.61;87.46;99892.55;107096;1257;73908;-37
2023/04/10 05:00:38;;;;;;;30.30;21.40;;;;;;;10.55;87.20;99895.65;107271;1257;63657;-37
2023/04/10 05:03:12;;;;;;;26.20;20.10;;;;;;;10.53;87.15;99898.94;107359;1257;61404;-37
2023/04/10 05:05:59;;;;;;;28.40;21.70;;;;;;;10.53;87.11;99904.10;107310;1260;73996;-37
2023/04/10 05:08:51;;;;;;;25.10;18.80;;;;;;;10.51;87.32;99909.48;107058;1257;69316;-38
2023/04/10 05:11:44;;;;;;;24.20;18.80;;;;;;;10.56;87.04;99911.61;107250;1257;74134;-38
2023/04/10 05:14:32;;;;;;;26.40;19.60;;;;;;;10.54;87.05;99912.98;107332;1257;61608;-37
2023/04/10 05:17:09;;;;;;;21.10;17.20;;;;;;;10.49;87.06;99914.00;107194;1257;61221;-37
2023/04/10 05:19:50;;;;;;;22.30;17.80;;;;;;;10.54;86.56;99916.14;107304;1256;73122;-37
2023/04/10 05:22:41;;;;;;;28.60;20.60;;;;;;;10.53;86.47;99918.08;107257;1257;69119;-37
2023/04/10 05:25:29;;;;;;;27.30;20.60;;;;;;;10.49;86.58;99920.41;107289;1257;74201;-37
2023/04/10 05:28:11;;;;;;;33.10;23.80;;;;;;;10.53;86.31;99924.42;107257;1256;61272;-37
2023/04/10 05:31:18;;;;;;;30.50;22.10;;;;;;;10.52;86.58;99925.02;106794;1263;61530;-37
2023/04/10 05:34:07;;;;;;;30.90;23.10;;;;;;;10.52;86.74;99925.15;106810;1263;73903;-37
2023/04/10 05:36:55;;;;;;;34.10;24.80;;;;;;;10.55;86.57;99926.38;107164;1256;69327;-37
2023/04/10 05:39:45;;;;;;;;;;;;;;;10.55;86.63;99928.04;107352;1256;72966;-37
2023/04/10 05:42:34;;;;;;;29.00;21.30;;;;;;;10.55;86.56;99929.52;107327;1260;62841;-37
2023/04/10 05:45:17;;;;;;;33.00;23.70;;;;;;;10.58;86.60;99930.13;107208;1256;60415;-37
2023/04/10 05:48:02;;;;;;;29.00;20.90;;;;;;;10.58;86.19;99931.28;107198;1257;74948;-37
2023/04/10 05:50:51;;;;;;;32.70;22.50;;;;;;;10.59;86.13;99929.61;107275;1260;69105;-37
2023/04/10 05:53:46;;;;;;;32.60;22.40;;;;;;;10.61;85.99;99931.36;107039;1257;73649;-38
2023/04/10 05:56:17;;;;;;;30.90;22.50;;;;;;;10.60;85.74;99933.83;107254;1257;61575;-37
2023/04/10 05:59:07;;;;;;;28.70;21.60;;;;;;;10.63;85.70;99932.95;107302;1256;61509;-37
2023/04/10 06:01:59;;;;;;;36.10;23.60;;;;;;;10.67;85.64;99931.47;107332;1257;75051;-37
2023/04/10 06:04:28;;;;;;;39.40;24.70;;;;;;;10.67;85.76;99930.07;107288;1261;68935;-37
2023/04/10 06:07:00;;;;;;;38.80;23.30;;;;;;;10.67;85.84;99932.71;107281;1260;74333;-37
2023/04/10 06:09:30;;;;;;;32.00;22.80;;;;;;;10.75;85.87;99936.41;107281;1260;61272;-37
2023/04/10 06:12:01;;;;;;;36.00;25.00;;;;;;;10.78;85.60;99934.80;107325;1256;61123;-37
2023/04/10 06:14:30;;;;;;;37.10;24.40;;;;;;;10.77;85.45;99935.84;107385;1257;73968;-37
2023/04/10 06:17:01;;;;;;;35.70;24.40;;;;;;;10.74;85.26;99936.91;107372;1260;67974;-37
2023/04/10 06:19:31;;;;;;;36.70;24.80;;;;;;;10.76;85.41;99938.85;107345;1257;72958;-37
2023/04/10 06:21:59;;;;;;;40.40;26.80;;;;;;;10.78;85.47;99938.91;107308;1256;60571;-38
2023/04/10 06:24:29;;;;;;;39.80;24.60;;;;;;;10.80;85.64;99943.28;107269;1260;61270;-38
2023/04/10 06:26:59;;;;;;;42.30;27.50;;;;;;;10.85;85.46;99943.34;107318;1256;75090;-37
2023/04/10 06:29:28;;;;;;;36.20;25.20;;;;;;;10.82;85.12;99942.80;107355;1257;68025;-37
2023/04/10 06:31:59;;;;;;;39.10;25.80;;;;;;;10.85;84.96;99950.09;107283;1256;73814;-38
2023/04/10 06:34:30;;;;;;;36.80;23.70;;;;;;;10.80;85.04;99954.61;107278;1257;63007;-37
2023/04/10 06:37:05;;;;;;;39.60;24.60;;;;;;;10.82;84.72;99950.86;107289;1256;61163;-37
2023/04/10 06:39:34;;;;;;;41.10;25.60;;;;;;;10.79;84.57;99955.02;107374;1257;74981;-38
2023/04/10 06:42:03;;;;;;;34.60;23.40;;;;;;;10.71;84.72;99953.57;107334;1257;69107;-38
2023/04/10 06:44:44;;;;;;;35.90;23.90;;;;;;;10.69;84.91;99954.61;107302;1257;73926;-38
2023/04/10 06:47:15;;;;;;;35.20;23.80;;;;;;;10.68;85.12;99959.38;107292;1257;60514;-38
2023/04/10 06:49:44;;;;;;;36.10;22.50;;;;;;;10.64;85.14;99953.30;107357;1257;61071;-38
2023/04/10 06:52:13;;;;;;;33.60;21.90;;;;;;;10.64;85.17;99951.20;107510;1254;75063;-38
2023/04/10 06:54:41;;;;;;;35.70;24.60;;;;;;;10.64;85.41;99952.23;107520;1254;69194;-38
2023/04/10 06:57:10;;;;;;;38.20;23.50;;;;;;;10.64;85.56;99955.33;107473;1254;73863;-38
2023/04/10 06:59:39;;;;;;;;;;;;;;;10.71;85.89;99960.25;107582;1254;62882;-38
2023/04/10 07:02:08;;;;;;;37.00;23.40;;;;;;;10.75;86.00;99959.58;107501;1257;61126;-37
2023/04/10 07:04:36;;;;;;;33.90;23.90;;;;;;;10.74;85.86;99961.73;107322;1254;75010;-37
2023/04/10 07:07:08;;;;;;;31.00;21.80;;;;;;;10.74;85.23;99957.98;107373;1254;69915;-37
2023/04/10 07:09:38;;;;;;;33.50;21.60;;;;;;;10.76;85.19;99960.38;107479;1254;73811;-38
2023/04/10 07:12:07;;;;;;;33.40;23.00;;;;;;;10.77;84.99;99962.04;107390;1258;60431;-38
2023/04/10 07:14:42;;;;;;;31.40;21.60;;;;;;;10.77;85.00;99962.89;107345;1254;61211;-38
2023/04/10 07:17:11;;;;;;;32.00;20.60;;;;;;;10.78;84.82;99962.36;107467;1254;73852;-37
2023/04/10 07:19:41;;;;;;;29.30;20.60;;;;;;;10.80;84.49;99960.79;107534;1259;68895;-37
2023/04/10 07:22:11;;;;;;;34.30;22.20;;;;;;;10.78;84.61;99960.90;107369;1254;73760;-37
2023/04/10 07:24:41;;;;;;;29.00;20.20;;;;;;;10.74;84.67;99965.14;107333;1254;62871;-37
2023/04/10 07:27:11;;;;;;;29.10;20.00;;;;;;;10.78;84.39;99966.40;107407;1254;61588;-37
2023/04/10 07:29:46;;;;;;;26.90;21.50;;;;;;;10.78;84.28;99967.41;107431;1254;74698;-37
2023/04/10 07:32:16;;;;;;;28.60;20.10;;;;;;;10.75;84.12;99968.66;107483;1254;68146;-37
2023/04/10 07:34:46;;;;;;;31.60;20.50;;;;;;;10.77;83.49;99965.85;107520;1257;73863;-37
2023/04/10 07:37:14;;;;;;;32.50;22.40;;;;;;;10.78;83.16;99971.14;107447;1254;61359;-37
2023/04/10 07:39:43;;;;;;;30.40;20.60;;;;;;;10.75;83.40;99975.14;107460;1254;60379;-38
2023/04/10 07:42:12;;;;;;;27.30;20.00;;;;;;;10.74;83.51;99979.53;107490;1254;74522;-37
2023/04/10 07:44:40;;;;;;;30.40;21.50;;;;;;;10.77;83.70;99978.02;107472;1254;69188;-37
2023/04/10 07:47:09;;;;;;;32.50;22.50;;;;;;;10.78;83.84;99980.20;107459;1260;73900;-37
2023/04/10 07:49:38;;;;;;;30.50;21.20;;;;;;;10.75;83.82;99983.29;107519;1255;63140;-38
2023/04/10 07:52:06;;;;;;;31.40;22.50;;;;;;;10.77;83.31;99983.95;107489;1254;61181;-37
2023/04/10 07:54:35;;;;;;;30.20;22.00;;;;;;;10.73;83.30;99984.48;107484;1257;74998;-37
2023/04/10 07:57:04;;;;;;;28.70;20.80;;;;;;;10.66;83.37;99981.16;107496;1260;69223;-38
2023/04/10 07:59:34;;;;;;;29.70;20.60;;;;;;;10.64;83.60;99986.02;107512;1255;71764;-37
2023/04/10 08:02:03;;;;;;;27.80;21.30;;;;;;;10.63;83.89;99986.29;107483;1256;61370;-37
2023/04/10 08:04:33;;;;;;;28.30;21.30;;;;;;;10.63;83.99;99986.73;107490;1255;61150;-38
2023/04/10 08:07:01;;;;;;;24.80;16.60;;;;;;;10.61;84.13;99983.95;107425;1254;75710;-38
2023/04/10 08:09:30;;;;;;;27.20;20.00;;;;;;;10.65;84.13;99983.94;107432;1260;69182;-37
2023/04/10 08:11:59;;;;;;;29.30;21.00;;;;;;;10.64;84.00;99983.67;107449;1258;72838;-37
2023/04/10 08:14:29;;;;;;;28.40;18.50;;;;;;;10.60;84.48;99982.61;107444;1258;63161;-37
2023/04/10 08:17:01;;;;;;;32.50;21.10;;;;;;;10.63;84.52;99987.52;107456;1254;61252;-37
2023/04/10 08:19:30;;;;;;;33.20;20.60;;;;;;;10.68;84.48;99988.76;107466;1254;75081;-37
2023/04/10 08:21:59;;;;;;;31.70;21.60;;;;;;;10.68;84.31;99990.92;107511;1260;67819;-37
2023/04/10 08:24:28;;;;;;;27.30;19.50;;;;;;;10.67;84.38;99988.27;107471;1254;73945;-37
2023/04/10 08:27:16;;;;;;;28.40;21.00;;;;;;;10.75;84.44;99990.11;107404;1255;60698;-37
2023/04/10 08:29:46;;;;;;;32.40;22.00;;;;;;;10.79;84.39;99990.54;107339;1254;61541;-37
2023/04/10 08:32:14;;;;;;;31.70;22.10;;;;;;;10.81;84.28;99994.47;107338;1257;74005;-37
2023/04/10 08:34:43;;;;;;;27.40;18.70;;;;;;;10.78;84.00;99998.96;107404;1260;68875;-37
2023/04/10 08:37:14;;;;;;;25.00;17.40;;;;;;;10.79;83.96;100000.67;107429;1258;73941;-37
2023/04/10 08:39:44;;;;;;;19.30;14.10;;;;;;;10.76;84.16;100004.70;107443;1257;61560;-37
2023/04/10 08:42:12;;;;;;;21.70;13.90;;;;;;;10.71;84.37;100006.18;107368;1258;60434;-37
2023/04/10 08:44:42;;;;;;;;;;;;;;;10.74;84.44;100006.48;107371;1254;76096;-37
2023/04/10 08:47:10;;;;;;;19.00;13.50;;;;;;;10.72;84.76;100006.67;107376;1259;69117;-37
2023/04/10 08:50:02;;;;;;;19.90;12.80;;;;;;;10.71;85.07;100005.17;107370;1259;73635;-37
2023/04/10 08:52:31;;;;;;;14.50;11.00;;;;;;;10.77;84.90;100003.89;107426;1260;63081;-37
2023/04/10 08:54:59;;;;;;;14.00;10.40;;;;;;;10.80;84.68;100001.41;107325;1259;61533;-37
2023/04/10 08:57:28;;;;;;;14.40;10.60;;;;;;;10.78;84.67;100003.84;107163;1260;75052;-37
2023/04/10 08:59:56;;;;;;;12.30;9.00;;;;;;;10.74;84.73;100002.55;107485;1259;69177;-37
2023/04/10 09:02:26;;;;;;;10.30;8.00;;;;;;;10.76;84.70;100000.14;107264;1260;73230;-38
2023/04/10 09:04:57;;;;;;;15.60;10.30;;;;;;;10.80;84.67;99997.45;107461;1260;60421;-37
2023/04/10 09:07:26;;;;;;;;;;;;;;;10.83;84.77;99999.31;107456;1260;61716;-37
2023/04/10 09:10:05;;;;;;;13.60;9.40;;;;;;;10.88;85.03;100001.79;107295;1260;74995;-37
2023/04/10 09:12:46;;;;;;;13.60;10.40;;;;;;;10.95;85.03;100000.72;107476;1259;66739;-38
2023/04/10 09:15:15;;;;;;;14.60;10.50;;;;;;;11.01;84.93;99999.73;107449;1254;73836;-38
2023/04/10 09:18:00;;;;;;;13.00;9.70;;;;;;;10.97;84.89;99991.01;107384;1259;63222;-38
2023/04/10 09:20:30;;;;;;;15.00;10.20;;;;;;;11.13;84.85;100001.28;107372;1254;60273;-38
2023/04/10 09:22:58;;;;;;;15.60;10.90;;;;;;;11.18;84.32;100003.21;107387;1257;74627;-38
2023/04/10 09:25:37;;;;;;;15.60;10.00;;;;;;;11.21;84.26;100003.52;107386;1254;68236;-37
2023/04/10 09:28:07;;;;;;;13.50;9.70;;;;;;;11.28;84.34;100003.17;107479;1259;72222;-38
2023/04/10 09:30:39;;;;;;;13.00;9.80;;;;;;;11.37;83.63;100003.55;107477;1254;61583;-37
2023/04/10 09:33:23;;;;;;;15.40;11.60;;;;;;;11.39;83.51;100003.14;107434;1254;61770;-37
2023/04/10 09:35:51;;;;;;;13.00;9.50;;;;;;;11.41;83.71;100005.21;107450;1255;75058;-37
2023/04/10 09:38:20;;;;;;;12.60;9.90;;;;;;;11.49;82.31;100007.30;107477;1257;69147;-37
2023/04/10 09:40:53;;;;;;;15.30;10.60;;;;;;;11.58;82.54;100007.83;107432;1260;73504;-37
2023/04/10 09:43:24;;;;;;;13.40;9.80;;;;;;;11.69;82.76;100009.34;107275;1263;63253;-37
2023/04/10 09:45:56;;;;;;;13.50;10.20;;;;;;;11.81;81.11;100005.30;107472;1260;61373;-37
2023/04/10 09:48:28;;;;;;;14.10;10.10;;;;;;;11.84;80.58;100005.84;107456;1259;75043;-37
2023/04/10 09:50:56;;;;;;;13.90;10.00;;;;;;;11.80;80.75;99991.77;107495;1259;69455;-37
2023/04/10 09:53:27;;;;;;;12.90;10.50;;;;;;;11.88;80.52;100000.97;107397;1257;73970;-37
2023/04/10 09:55:56;;;;;;;14.90;11.20;;;;;;;11.94;80.32;99998.16;107340;1260;61635;-37
2023/04/10 09:58:25;;;;;;;14.50;11.70;;;;;;;11.96;79.87;99997.67;107398;1255;61346;-37
2023/04/10 10:00:56;;;;;;;15.30;11.00;;;;;;;11.96;79.06;99996.33;107487;1256;73776;-37
2023/04/10 10:03:26;;;;;;;16.70;11.10;;;;;;;11.98;79.47;99995.79;107352;1260;69094;-37
2023/04/10 10:05:54;;;;;;;16.00;11.20;;;;;;;12.03;79.06;99986.35;107381;1255;72496;-38
2023/04/10 10:08:25;;;;;;;14.30;10.20;;;;;;;12.11;79.78;99981.25;107466;1255;61378;-38
2023/04/10 10:10:56;;;;;;;14.10;9.60;;;;;;;12.21;78.32;99973.63;107446;1259;60339;-38
2023/04/10 10:13:35;;;;;;;11.40;9.20;;;;;;;12.40;78.33;99971.69;107466;1254;75324;-37
2023/04/10 10:16:13;;;;;;;14.40;9.70;;;;;;;12.58;76.90;99975.66;107314;1260;69072;-37
2023/04/10 10:18:52;;;;;;;12.50;8.50;;;;;;;12.73;76.79;99977.67;107271;1259;73821;-37
2023/04/10 10:21:22;;;;;;;11.30;7.60;;;;;;;13.04;77.25;99974.23;107473;1260;61989;-38
2023/04/10 10:24:01;;;;;;;10.90;8.00;;;;;;;13.58;75.61;99974.28;107434;1260;61601;-38
2023/04/10 10:26:30;;;;;;;10.20;7.90;;;;;;;14.15;73.95;99975.54;107334;1258;74688;-38
2023/04/10 10:29:02;;;;;;;8.40;5.00;;;;;;;14.66;72.09;99971.48;107445;1260;68874;-38
2023/04/10 10:31:35;;;;;;;9.70;7.20;;;;;;;15.12;69.39;99967.63;107293;1254;72684;-36
2023/04/10 10:34:06;;;;;;;8.20;6.10;;;;;;;15.53;66.96;99957.73;107263;1254;62309;-36
2023/04/10 10:36:35;;;;;;;10.90;7.00;;;;;;;15.84;64.47;99960.09;107415;1260;61496;-36
2023/04/10 10:39:03;;;;;;;8.70;7.20;;;;;;;15.93;62.68;99960.39;107494;1257;73858;-38
2023/04/10 10:41:46;;;;;;;8.80;7.50;;;;;;;15.84;62.39;99961.19;107466;1254;68939;-38
2023/04/10 10:44:22;;;;;;;10.10;7.70;;;;;;;15.76;62.73;99955.66;107470;1257;73540;-38
2023/04/10 10:47:13;;;;;;;9.50;8.10;;;;;;;15.85;63.15;99959.16;107302;1255;61185;-37
2023/04/10 10:49:54;;;;;;;9.90;7.80;;;;;;;15.78;60.83;99953.58;107560;1254;60297;-37
2023/04/10 10:52:39;;;;;;;8.90;8.00;;;;;;;15.43;61.14;99949.05;107462;1260;73880;-37
2023/04/10 10:55:27;;;;;;;8.50;7.60;;;;;;;15.04;63.38;99950.86;107455;1259;69051;-37
2023/04/10 10:57:57;;;;;;;9.30;7.10;;;;;;;14.89;64.52;99949.77;107451;1260;72768;-37
2023/04/10 11:00:46;;;;;;;9.80;8.00;;;;;;;14.92;64.13;99948.71;107437;1259;60312;-37
2023/04/10 11:03:17;;;;;;;8.80;7.40;;;;;;;15.15;63.64;99943.78;107443;1254;61657;-37
2023/04/10 11:05:58;;;;;;;11.10;7.40;;;;;;;15.40;63.09;99937.39;107435;1254;73445;-37
2023/04/10 11:08:32;;;;;;;7.90;7.10;;;;;;;15.59;61.17;99936.87;107502;1255;68378;-37
2023/04/10 11:11:06;;;;;;;7.70;5.40;;;;;;;15.65;61.32;99938.63;107375;1254;73806;-37
2023/04/10 11:13:38;;;;;;;6.90;6.00;;;;;;;15.67;60.15;99939.60;107326;1254;61364;-37
2023/04/10 11:16:11;;;;;;;7.50;5.40;;;;;;;15.61;59.95;99939.77;107359;1259;60997;-37
2023/04/10 11:19:00;;;;;;;6.90;5.50;;;;;;;15.44;59.29;99944.36;107326;1254;75102;-37
2023/04/10 11:21:59;;;;;;;7.50;5.90;;;;;;;15.31;60.51;99942.06;107448;1254;68207;-37
2023/04/10 11:24:53;;;;;;;7.10;6.20;;;;;;;15.24;60.59;99937.02;107358;1255;73601;-37
2023/04/10 11:27:45;;;;;;;5.90;5.30;;;;;;;15.39;61.65;99932.54;107496;1254;62176;-37
2023/04/10 11:30:30;;;;;;;6.20;5.20;;;;;;;15.69;60.01;99932.97;107468;1259;60339;-37
2023/04/10 11:32:59;;;;;;;7.40;5.20;;;;;;;15.68;58.53;99932.02;107433;1260;75100;-37
2023/04/10 11:35:30;;;;;;;6.60;5.70;;;;;;;15.56;59.12;99928.26;107523;1254;68831;-37
2023/04/10 11:38:13;;;;;;;5.80;5.20;;;;;;;15.52;58.71;99932.75;107435;1254;74244;-37
2023/04/10 11:40:55;;;;;;;7.20;5.30;;;;;;;15.47;58.38;99928.79;107443;1255;61601;-37
2023/04/10 11:43:24;;;;;;;7.20;6.00;;;;;;;15.47;58.61;99923.48;107493;1254;60335;-37
2023/04/10 11:46:03;;;;;;;7.20;6.50;;;;;;;15.54;59.22;99920.74;107430;1254;74873;-37
2023/04/10 11:48:32;;;;;;;8.60;7.30;;;;;;;15.66;59.52;99919.89;107446;1254;68931;-37